Time;durP1;ratioP1;P1;durP2;ratioP2;P2;SDS_P1;SDS_P2;PMS_P1;PMS_P2;Temp;Humidity;BMP_temperature;BMP_pressure;BME280_temperature;BME280_humidity;BME280_pressure;Samples;Min_cycle;Max_cycle;Signal;HPM_P1;HPM_P2
2021/12/24 00:00:51;;;;;;;65.70;30.08;;;0.60;99.90;;;;;;4996532;28;20031;-89
2021/12/24 00:03:17;;;;;;;72.00;31.15;;;0.60;99.90;;;;;;4997613;28;20084;-88
2021/12/24 00:05:44;;;;;;;76.55;30.92;;;0.70;99.90;;;;;;4998061;28;20027;-88
2021/12/24 00:08:09;;;;;;;70.38;31.40;;;0.70;99.90;;;;;;4998235;28;20149;-88
2021/12/24 00:10:38;;;;;;;63.40;29.40;;;0.80;99.90;;;;;;5001085;28;20062;-88
2021/12/24 00:13:09;;;;;;;74.32;32.03;;;0.80;99.90;;;;;;5002337;28;20038;-87
2021/12/24 00:36:52;;;;;;;74.45;30.67;;;0.40;99.90;;;;;;4998440;28;20105;-86
2021/12/24 00:39:18;;;;;;;76.20;32.17;;;0.50;99.90;;;;;;5000888;28;20049;-88
2021/12/24 00:41:44;;;;;;;73.07;28.88;;;0.50;99.90;;;;;;5012588;28;20026;-86
2021/12/24 00:44:10;;;;;;;71.40;29.98;;;0.50;99.90;;;;;;5010197;28;20022;-88
2021/12/24 00:46:36;;;;;;;65.18;28.75;;;0.60;99.90;;;;;;5003619;28;20398;-87
2021/12/24 00:49:02;;;;;;;71.72;30.58;;;0.60;99.90;;;;;;5003076;28;20057;-87
2021/12/24 00:56:55;;;;;;;71.07;29.85;;;0.60;99.90;;;;;;5002340;28;20025;-88
2021/12/24 00:59:21;;;;;;;70.60;31.50;;;0.50;99.90;;;;;;5014002;28;20026;-87
2021/12/24 01:01:47;;;;;;;69.70;28.88;;;0.60;99.90;;;;;;5014588;28;20053;-88
2021/12/24 01:04:13;;;;;;;68.07;29.38;;;0.70;99.90;;;;;;4998533;28;20034;-87
2021/12/24 01:06:39;;;;;;;69.68;30.02;;;0.80;99.90;;;;;;5007115;28;20076;-86
2021/12/24 01:09:05;;;;;;;71.38;30.67;;;0.80;99.90;;;;;;5003841;28;20038;-87
2021/12/24 01:11:31;;;;;;;74.50;30.83;;;0.80;99.90;;;;;;5007824;28;20014;-88
2021/12/24 01:14:00;;;;;;;74.88;31.05;;;0.80;99.90;;;;;;5015761;28;20057;-86
2021/12/24 01:16:35;;;;;;;70.18;31.60;;;0.80;99.90;;;;;;5006198;28;20050;-87
2021/12/24 01:19:14;;;;;;;73.97;34.47;;;0.80;99.90;;;;;;5005907;28;20056;-87
2021/12/24 01:24:14;;;;;;;72.43;32.33;;;0.80;99.90;;;;;;5005817;28;20046;-87
2021/12/24 01:26:55;;;;;;;73.10;33.30;;;0.90;99.90;;;;;;5008135;28;20023;-87
2021/12/24 01:29:43;;;;;;;72.18;31.23;;;0.80;99.90;;;;;;5009959;28;20045;-88
2021/12/24 01:43:39;;;;;;;76.03;34.38;;;0.80;99.90;;;;;;4994673;28;20072;-90
2021/12/24 01:46:05;;;;;;;78.90;33.50;;;0.80;99.90;;;;;;5018226;28;20082;-87
2021/12/24 01:48:31;;;;;;;83.18;34.97;;;0.80;99.90;;;;;;5018088;28;20057;-88
2021/12/24 01:50:57;;;;;;;81.07;35.30;;;0.80;99.90;;;;;;5014972;28;20019;-84
2021/12/24 01:53:34;;;;;;;80.28;33.13;;;0.80;99.90;;;;;;5012104;28;20041;-82
2021/12/24 01:56:00;;;;;;;78.55;34.25;;;0.80;99.90;;;;;;5008418;28;20113;-86
2021/12/24 01:58:27;;;;;;;79.00;33.63;;;0.90;99.90;;;;;;5023591;23;20050;-83
2021/12/24 02:00:57;;;;;;;84.70;36.45;;;1.00;99.90;;;;;;5010494;28;20470;-86
2021/12/24 02:03:23;;;;;;;76.63;33.50;;;1.10;99.90;;;;;;5011829;28;20030;-83
2021/12/24 02:05:49;;;;;;;73.10;33.03;;;1.20;99.90;;;;;;5001233;28;20038;-85
2021/12/24 02:08:17;;;;;;;79.03;33.08;;;1.30;99.90;;;;;;5012056;28;20105;-85
2021/12/24 02:10:48;;;;;;;65.10;30.23;;;1.40;99.90;;;;;;5014277;28;20509;-84
2021/12/24 02:13:14;;;;;;;62.92;29.13;;;1.70;99.90;;;;;;5016858;28;20026;-84
2021/12/24 02:16:04;;;;;;;75.47;31.17;;;1.90;99.90;;;;;;4993256;28;20053;-85
2021/12/24 02:29:31;;;;;;;64.13;29.35;;;2.30;99.90;;;;;;5016158;28;20278;-85
2021/12/24 02:31:56;;;;;;;63.85;31.00;;;2.30;99.90;;;;;;5015554;28;20062;-84
2021/12/24 02:34:22;;;;;;;50.75;22.98;;;2.30;99.90;;;;;;5017067;28;20026;-83
2021/12/24 02:36:48;;;;;;;70.50;31.08;;;2.40;99.90;;;;;;5017395;28;20054;-84
2021/12/24 02:39:14;;;;;;;61.03;29.42;;;2.60;99.90;;;;;;5017848;28;20018;-84
2021/12/24 02:41:40;;;;;;;51.00;25.30;;;2.70;99.90;;;;;;5000745;28;20046;-83
2021/12/24 02:44:06;;;;;;;49.53;23.55;;;2.80;99.90;;;;;;5016762;28;20018;-82
2021/12/24 02:46:40;;;;;;;52.08;24.27;;;2.90;99.90;;;;;;5017659;28;20014;-83
2021/12/24 02:53:53;;;;;;;;;;;3.00;99.90;;;;;;5017022;28;20050;-85
2021/12/24 02:55:05;;;;;;;53.83;24.77;;;3.30;99.90;;;;;;4994317;28;20499;-83
2021/12/24 02:57:32;;;;;;;59.28;26.42;;;3.40;99.90;;;;;;5010905;28;20030;-83
2021/12/24 03:00:00;;;;;;;57.63;26.98;;;3.40;99.90;;;;;;5018967;28;20121;-84
2021/12/24 03:02:28;;;;;;;48.03;24.42;;;3.40;99.90;;;;;;5001650;28;20026;-83
2021/12/24 03:04:54;;;;;;;51.00;24.33;;;3.40;99.90;;;;;;5018105;28;20053;-83
2021/12/24 03:07:19;;;;;;;53.33;23.48;;;3.40;99.90;;;;;;5019346;28;20434;-83
2021/12/24 03:09:45;;;;;;;39.55;18.60;;;3.50;99.90;;;;;;5018308;28;20045;-84
2021/12/24 03:12:11;;;;;;;32.47;15.02;;;4.00;99.90;;;;;;5019900;28;20011;-83
2021/12/24 03:14:37;;;;;;;24.17;8.88;;;4.40;99.90;;;;;;5019074;28;20054;-84
2021/12/24 03:17:09;;;;;;;16.63;7.63;;;5.20;99.90;;;;;;5002224;28;20093;-82
2021/12/24 03:19:35;;;;;;;15.48;6.88;;;5.50;99.90;;;;;;5018526;28;20034;-83
2021/12/24 03:24:49;;;;;;;20.90;6.32;;;6.20;99.90;;;;;;5019136;28;20109;-83
2021/12/24 03:27:15;;;;;;;12.60;6.72;;;6.70;99.90;;;;;;5019748;28;20034;-83
2021/12/24 03:29:41;;;;;;;15.00;6.32;;;7.00;99.90;;;;;;5019739;28;20053;-84
2021/12/24 03:32:07;;;;;;;12.43;6.05;;;7.20;99.90;;;;;;5019887;28;20034;-82
2021/12/24 03:34:33;;;;;;;12.43;5.72;;;7.30;99.90;;;;;;5019458;28;20021;-83
2021/12/24 03:37:00;;;;;;;10.13;5.70;;;7.40;99.90;;;;;;5019443;28;20031;-81
2021/12/24 03:39:29;;;;;;;14.68;5.72;;;7.40;99.90;;;;;;5019164;28;20077;-84
2021/12/24 03:41:56;;;;;;;12.77;6.20;;;7.40;99.90;;;;;;5019346;28;20027;-83
2021/12/24 03:44:31;;;;;;;15.32;6.47;;;7.50;99.90;;;;;;5019836;28;20084;-84
2021/12/24 03:47:04;;;;;;;14.63;6.43;;;7.60;99.90;;;;;;5019148;28;20065;-83
2021/12/24 03:49:40;;;;;;;11.75;6.03;;;7.70;99.90;;;;;;5018678;28;20034;-83
2021/12/24 03:54:57;;;;;;;13.45;6.93;;;7.80;99.90;;;;;;5018986;28;20050;-84
2021/12/24 03:57:37;;;;;;;14.40;7.18;;;7.80;99.90;;;;;;5018695;28;20101;-83
2021/12/24 04:00:30;;;;;;;13.23;7.47;;;7.90;99.90;;;;;;5019056;28;20141;-84
2021/12/24 04:03:28;;;;;;;15.68;7.32;;;7.90;99.90;;;;;;5007912;28;20029;-83
2021/12/24 04:06:13;;;;;;;16.63;7.72;;;7.90;99.90;;;;;;5019411;28;20042;-83
2021/12/24 04:08:58;;;;;;;15.88;6.88;;;7.80;99.90;;;;;;5018749;28;20061;-84
2021/12/24 04:11:43;;;;;;;16.95;7.35;;;7.80;99.90;;;;;;5018788;28;20022;-84
2021/12/24 04:14:09;;;;;;;17.00;8.10;;;7.80;99.90;;;;;;5002462;28;20058;-84
2021/12/24 04:16:37;;;;;;;20.92;8.05;;;7.80;99.90;;;;;;5019676;28;20010;-84
2021/12/24 04:24:53;;;;;;;13.93;7.55;;;7.80;99.90;;;;;;5018321;28;20093;-84
2021/12/24 04:27:26;;;;;;;17.58;7.28;;;7.80;99.90;;;;;;5016827;28;20081;-84
2021/12/24 04:30:00;;;;;;;15.15;7.80;;;7.90;99.90;;;;;;5013981;28;20221;-83
2021/12/24 04:32:37;;;;;;;16.95;8.10;;;7.90;99.90;;;;;;4997784;28;20010;-82
2021/12/24 04:51:39;;;;;;;15.43;7.43;;;8.00;99.90;;;;;;5012153;28;20025;-84
2021/12/24 05:05:19;;;;;;;17.20;7.75;;;8.10;99.90;;;;;;5017249;28;20010;-84
2021/12/24 05:10:21;;;;;;;19.05;7.75;;;8.10;99.90;;;;;;5017552;28;20105;-84
2021/12/24 05:12:47;;;;;;;19.13;8.25;;;8.10;99.90;;;;;;5017188;28;20045;-82
2021/12/24 05:15:13;;;;;;;14.77;7.97;;;8.00;99.90;;;;;;5000475;28;20030;-83
2021/12/24 05:23:37;;;;;;;14.43;8.05;;;8.10;99.90;;;;;;5016496;28;20085;-85
2021/12/24 05:26:03;;;;;;;15.05;7.53;;;8.10;99.90;;;;;;5015750;28;20018;-84
2021/12/24 05:28:29;;;;;;;17.23;8.25;;;8.10;99.90;;;;;;5017923;28;20034;-86
2021/12/24 05:30:55;;;;;;;14.15;7.18;;;8.10;99.90;;;;;;5001517;28;20026;-84
2021/12/24 05:33:21;;;;;;;16.80;7.93;;;8.10;99.90;;;;;;5016464;28;20035;-87
2021/12/24 05:35:47;;;;;;;17.23;8.43;;;8.10;99.90;;;;;;5016595;28;20029;-84
2021/12/24 05:38:14;;;;;;;14.25;7.78;;;8.10;99.90;;;;;;5017664;28;20097;-85
2021/12/24 05:40:42;;;;;;;20.33;7.60;;;8.20;99.90;;;;;;5017892;28;20042;-84
2021/12/24 05:43:08;;;;;;;14.05;7.57;;;8.20;99.90;;;;;;5017934;28;20014;-85
2021/12/24 05:45:35;;;;;;;15.07;7.72;;;8.30;99.90;;;;;;5018435;28;20042;-85
2021/12/24 05:48:16;;;;;;;13.48;7.05;;;8.30;99.90;;;;;;5017707;28;20042;-84
2021/12/24 05:50:43;;;;;;;16.33;7.22;;;8.40;99.90;;;;;;5016871;28;20053;-84
2021/12/24 05:53:25;;;;;;;13.27;7.18;;;8.40;99.90;;;;;;5017360;28;20026;-82
2021/12/24 05:55:58;;;;;;;12.73;7.22;;;8.50;99.90;;;;;;5017324;28;20041;-82
2021/12/24 05:58:24;;;;;;;13.70;7.07;;;8.60;99.90;;;;;;5017038;28;20037;-85
2021/12/24 06:00:51;;;;;;;11.32;6.60;;;8.70;99.90;;;;;;5017118;28;20102;-84
2021/12/24 06:03:22;;;;;;;11.90;7.00;;;8.80;99.90;;;;;;5001931;28;20038;-85
2021/12/24 06:05:49;;;;;;;10.65;6.20;;;8.90;99.90;;;;;;5017663;28;20038;-84
2021/12/24 06:08:15;;;;;;;11.40;6.05;;;8.90;99.90;;;;;;5017827;28;20053;-84
2021/12/24 06:10:42;;;;;;;12.88;6.50;;;8.90;99.90;;;;;;5017009;28;20034;-84
2021/12/24 06:13:08;;;;;;;10.93;6.13;;;9.00;99.90;;;;;;5017679;28;20026;-85
2021/12/24 06:15:43;;;;;;;11.38;4.88;;;9.00;99.90;;;;;;5017357;28;20050;-84
2021/12/24 06:18:19;;;;;;;11.07;5.00;;;9.10;99.90;;;;;;5017748;28;20031;-83
2021/12/24 06:20:45;;;;;;;11.07;5.00;;;9.10;99.90;;;;;;5017843;28;20042;-86
2021/12/24 06:23:10;;;;;;;10.63;5.78;;;9.10;99.90;;;;;;5017777;28;20019;-85
2021/12/24 06:25:36;;;;;;;10.80;5.25;;;9.20;99.90;;;;;;5017547;28;20018;-84
2021/12/24 06:28:03;;;;;;;12.75;5.03;;;9.20;99.90;;;;;;5017208;28;20042;-85
2021/12/24 06:30:29;;;;;;;11.30;5.55;;;9.20;99.90;;;;;;5017180;28;20041;-83
2021/12/24 06:32:56;;;;;;;9.50;5.10;;;9.30;99.90;;;;;;5019749;28;20030;-85
2021/12/24 06:35:24;;;;;;;13.43;6.15;;;9.30;99.90;;;;;;5019734;28;20041;-83
2021/12/24 06:37:50;;;;;;;10.13;4.80;;;9.30;99.90;;;;;;5021209;28;20026;-85
2021/12/24 06:40:16;;;;;;;11.57;6.13;;;9.40;99.90;;;;;;5020845;28;20026;-84
2021/12/24 06:42:42;;;;;;;11.80;5.75;;;9.40;99.90;;;;;;5021193;28;20015;-85
2021/12/24 06:45:09;;;;;;;10.13;5.38;;;9.50;99.90;;;;;;5021081;28;20022;-86
2021/12/24 06:47:35;;;;;;;12.95;5.03;;;9.50;99.90;;;;;;5020967;28;20030;-86
2021/12/24 06:50:00;;;;;;;13.60;5.55;;;9.50;99.90;;;;;;5020595;28;20094;-85
2021/12/24 06:52:26;;;;;;;9.95;5.50;;;9.40;99.90;;;;;;5021404;28;20077;-85
2021/12/24 06:54:52;;;;;;;10.40;5.68;;;9.50;99.90;;;;;;5021160;28;20038;-86
2021/12/24 06:57:23;;;;;;;10.77;5.28;;;9.40;99.90;;;;;;5004334;28;20024;-84
2021/12/24 06:59:49;;;;;;;8.10;4.75;;;9.50;99.90;;;;;;5020520;28;20098;-86
2021/12/24 07:02:15;;;;;;;9.02;4.80;;;9.50;99.90;;;;;;5020846;28;20029;-85
2021/12/24 07:04:41;;;;;;;9.07;4.15;;;9.60;99.90;;;;;;5020777;28;20069;-84
2021/12/24 07:07:06;;;;;;;10.13;5.15;;;9.60;99.90;;;;;;5021686;28;20015;-84
2021/12/24 07:09:32;;;;;;;9.55;4.38;;;9.70;99.90;;;;;;5021692;28;20046;-86
2021/12/24 07:11:58;;;;;;;7.45;4.13;;;9.70;99.90;;;;;;5020208;28;20166;-85
2021/12/24 07:14:24;;;;;;;9.52;4.32;;;9.80;99.90;;;;;;5021375;28;20033;-86
2021/12/24 07:16:51;;;;;;;8.73;4.47;;;9.80;99.90;;;;;;5020692;28;20080;-85
2021/12/24 07:19:17;;;;;;;8.15;4.47;;;9.80;99.90;;;;;;5020374;28;20042;-85
2021/12/24 07:21:42;;;;;;;10.90;4.80;;;9.90;99.90;;;;;;5003685;28;20073;-84
2021/12/24 07:24:09;;;;;;;11.80;3.92;;;10.00;99.90;;;;;;5020408;28;20045;-84
2021/12/24 07:26:35;;;;;;;9.02;4.07;;;10.10;99.90;;;;;;5021475;28;20021;-84
2021/12/24 07:29:05;;;;;;;8.60;4.32;;;10.20;99.90;;;;;;5021150;28;20034;-86
2021/12/24 07:31:31;;;;;;;6.05;3.47;;;10.20;99.90;;;;;;5003505;28;20053;-86
2021/12/24 07:33:57;;;;;;;10.45;3.55;;;10.30;99.90;;;;;;5020648;28;20018;-84
2021/12/24 07:36:22;;;;;;;5.97;2.97;;;10.40;99.90;;;;;;5021048;28;20023;-86
2021/12/24 07:38:48;;;;;;;7.25;3.10;;;10.40;99.90;;;;;;5020310;28;20034;-86
2021/12/24 07:41:15;;;;;;;9.70;5.35;;;10.40;99.90;;;;;;5021139;28;20034;-87
2021/12/24 07:43:41;;;;;;;5.45;3.40;;;10.40;99.90;;;;;;5019864;28;20041;-86
2021/12/24 07:46:06;;;;;;;12.07;5.45;;;10.40;99.90;;;;;;5020795;28;20038;-85
2021/12/24 07:48:35;;;;;;;5.07;2.42;;;10.50;99.90;;;;;;5019593;28;20062;-85
2021/12/24 07:53:27;;;;;;;4.75;2.60;;;10.70;99.90;;;;;;5019979;28;20034;-86
2021/12/24 07:55:55;;;;;;;5.93;2.80;;;10.90;99.90;;;;;;5020670;28;20018;-86
2021/12/24 07:58:21;;;;;;;7.03;2.95;;;10.90;99.90;;;;;;5030339;23;20030;-87
2021/12/24 08:00:47;;;;;;;4.90;2.50;;;11.00;99.90;;;;;;5016979;28;20021;-88
2021/12/24 08:03:14;;;;;;;5.38;2.53;;;11.00;99.90;;;;;;5020393;28;20034;-87
2021/12/24 08:05:41;;;;;;;4.63;2.45;;;11.00;99.90;;;;;;5019520;28;20058;-89
2021/12/24 08:08:09;;;;;;;4.65;2.28;;;11.10;99.90;;;;;;5019531;28;20026;-88
2021/12/24 08:10:35;;;;;;;5.60;2.22;;;11.10;99.90;;;;;;5019015;28;20018;-88
2021/12/24 08:13:02;;;;;;;5.10;2.42;;;11.10;99.90;;;;;;5016197;28;20022;-89
2021/12/24 08:15:28;;;;;;;6.70;2.55;;;11.10;99.90;;;;;;5015730;28;20038;-88
2021/12/24 08:17:54;;;;;;;5.80;2.20;;;11.10;99.90;;;;;;5012331;28;20034;-87
2021/12/24 08:20:24;;;;;;;6.63;2.15;;;11.10;99.90;;;;;;5009281;28;20030;-89
2021/12/24 08:22:53;;;;;;;5.47;2.42;;;11.10;99.90;;;;;;5007381;28;20054;-88
2021/12/24 08:25:21;;;;;;;5.70;2.13;;;11.10;99.90;;;;;;5004856;28;20026;-88
2021/12/24 08:27:47;;;;;;;4.72;2.00;;;11.20;99.90;;;;;;5005474;28;20041;-87
2021/12/24 08:30:13;;;;;;;5.15;2.22;;;11.10;99.90;;;;;;4989386;28;20042;-89
2021/12/24 08:32:42;;;;;;;8.75;2.42;;;11.10;99.90;;;;;;5009427;28;20041;-88
2021/12/24 08:35:15;;;;;;;5.38;2.33;;;11.00;99.90;;;;;;5014118;28;20026;-87
2021/12/24 08:37:42;;;;;;;4.65;2.60;;;10.90;99.90;;;;;;5014474;28;20029;-88
2021/12/24 08:40:09;;;;;;;4.90;2.38;;;10.80;99.90;;;;;;5014580;28;20027;-87
2021/12/24 08:42:35;;;;;;;5.40;2.53;;;10.80;99.90;;;;;;5015364;28;20077;-87
2021/12/24 08:45:01;;;;;;;4.45;2.33;;;10.70;99.90;;;;;;5016804;28;20026;-88
2021/12/24 08:47:27;;;;;;;6.47;2.40;;;10.70;99.90;;;;;;5016160;28;20106;-89
2021/12/24 08:49:52;;;;;;;4.25;2.65;;;10.70;99.90;;;;;;4999276;28;20030;-89
2021/12/24 08:52:18;;;;;;;9.60;2.58;;;10.70;99.90;;;;;;5013980;28;20034;-88
2021/12/24 08:54:44;;;;;;;6.93;2.65;;;10.70;99.90;;;;;;5013597;28;20041;-88
2021/12/24 08:57:13;;;;;;;7.32;2.65;;;10.70;99.90;;;;;;5015219;28;20034;-87
2021/12/24 08:59:38;;;;;;;9.15;2.17;;;10.70;99.90;;;;;;5015123;28;20045;-88
2021/12/24 09:02:04;;;;;;;3.88;2.58;;;10.70;99.90;;;;;;5012083;28;20027;-88
2021/12/24 09:04:31;;;;;;;4.72;2.08;;;10.80;99.90;;;;;;5005518;28;20609;-88
2021/12/24 09:06:57;;;;;;;4.88;2.03;;;10.80;99.90;;;;;;5009027;28;20023;-90
2021/12/24 09:09:22;;;;;;;3.70;1.67;;;10.90;99.90;;;;;;5006115;28;20406;-86
2021/12/24 09:11:49;;;;;;;4.72;2.40;;;10.90;99.90;;;;;;5004241;28;20029;-87
2021/12/24 09:14:17;;;;;;;5.22;2.35;;;10.90;99.90;;;;;;5003683;28;20027;-87
2021/12/24 09:16:48;;;;;;;13.02;5.93;;;11.10;99.90;;;;;;5004764;28;20061;-87
2021/12/24 09:19:18;;;;;;;6.82;1.90;;;11.10;99.90;;;;;;5004834;28;20034;-89
2021/12/24 09:21:45;;;;;;;7.03;2.67;;;11.10;99.90;;;;;;4989519;28;20363;-90
2021/12/24 09:24:16;;;;;;;3.65;2.03;;;11.10;99.90;;;;;;5014689;28;20048;-88
2021/12/24 09:26:42;;;;;;;4.53;2.65;;;11.10;99.90;;;;;;4989826;28;20098;-87
2021/12/24 09:29:09;;;;;;;6.82;2.42;;;11.20;99.90;;;;;;5006842;28;20026;-88
2021/12/24 09:31:35;;;;;;;3.83;2.10;;;11.20;99.90;;;;;;5004488;28;20030;-87
2021/12/24 09:34:01;;;;;;;4.05;2.30;;;11.20;99.90;;;;;;4985046;28;20121;-88
2021/12/24 09:36:28;;;;;;;4.53;2.60;;;11.30;99.90;;;;;;5002409;28;20023;-88
2021/12/24 09:39:03;;;;;;;7.10;2.30;;;11.30;99.90;;;;;;5005806;28;20093;-88
2021/12/24 09:41:30;;;;;;;7.13;2.38;;;11.30;99.90;;;;;;5004626;28;20038;-89
2021/12/24 09:43:58;;;;;;;4.65;2.08;;;11.30;99.90;;;;;;4988736;28;20117;-89
2021/12/24 09:46:29;;;;;;;7.15;1.83;;;11.30;99.90;;;;;;5007445;28;20026;-89
2021/12/24 09:48:55;;;;;;;2.38;1.70;;;11.40;99.90;;;;;;5016203;28;20052;-89
2021/12/24 09:51:25;;;;;;;4.57;2.05;;;11.40;99.90;;;;;;5016826;28;20033;-89
2021/12/24 09:53:51;;;;;;;4.38;1.98;;;11.40;99.90;;;;;;5015733;28;20042;-88
2021/12/24 09:56:17;;;;;;;3.92;1.80;;;11.40;99.90;;;;;;5016560;28;20023;-87
2021/12/24 09:58:43;;;;;;;4.05;1.83;;;11.40;99.90;;;;;;4999516;28;20037;-88
2021/12/24 10:01:30;;;;;;;4.00;1.73;;;11.40;99.90;;;;;;4999656;28;20129;-89
2021/12/24 10:04:06;;;;;;;3.00;2.13;;;11.40;99.90;;;;;;5016297;28;20073;-87
2021/12/24 10:06:32;;;;;;;6.10;3.00;;;11.40;99.90;;;;;;5007112;28;20034;-89
2021/12/24 10:09:07;;;;;;;3.47;2.20;;;11.50;99.90;;;;;;5004371;28;20030;-86
2021/12/24 10:11:56;;;;;;;;;;;11.40;99.90;;;;;;5004898;28;20026;-87
2021/12/24 10:14:29;;;;;;;3.97;1.75;;;11.50;99.90;;;;;;5005104;28;19979;-88
2021/12/24 10:16:55;;;;;;;5.38;2.58;;;11.50;99.90;;;;;;5005189;28;20069;-88
2021/12/24 10:19:21;;;;;;;4.53;2.00;;;11.50;99.90;;;;;;4986004;28;20041;-88
2021/12/24 10:21:56;;;;;;;2.72;1.75;;;11.50;99.90;;;;;;5001871;28;20034;-88
2021/12/24 10:24:23;;;;;;;6.68;1.95;;;11.50;99.90;;;;;;5001688;28;20038;-88
2021/12/24 10:26:54;;;;;;;3.67;2.58;;;11.50;99.90;;;;;;4985341;28;20022;-88
2021/12/24 10:29:32;;;;;;;3.17;1.85;;;11.50;99.90;;;;;;5010724;28;20045;-88
2021/12/24 10:32:14;;;;;;;3.60;2.25;;;11.50;99.90;;;;;;5008320;28;20022;-89
2021/12/24 10:34:43;;;;;;;6.22;1.90;;;11.50;99.90;;;;;;5007491;28;20026;-88
2021/12/24 10:37:26;;;;;;;3.55;1.65;;;11.40;99.90;;;;;;5004232;28;20023;-87
2021/12/24 10:39:56;;;;;;;6.32;1.83;;;11.40;99.90;;;;;;4988977;28;20088;-89
2021/12/24 10:42:36;;;;;;;3.70;2.05;;;11.40;99.90;;;;;;5010749;28;20027;-88
2021/12/24 10:45:06;;;;;;;3.05;2.00;;;11.50;99.90;;;;;;5013344;28;20133;-88
2021/12/24 10:47:37;;;;;;;5.53;1.90;;;11.50;99.90;;;;;;5000598;28;20053;-90
2021/12/24 10:55:38;;;;;;;6.43;1.98;;;11.60;99.90;;;;;;5004802;28;20065;-88
2021/12/24 10:58:12;;;;;;;6.05;2.20;;;11.70;99.90;;;;;;4990969;28;20105;-87
2021/12/24 11:00:48;;;;;;;3.17;2.20;;;11.70;99.90;;;;;;4997917;28;20050;-88
2021/12/24 11:03:31;;;;;;;5.05;2.17;;;11.60;99.90;;;;;;5017143;28;20022;-89
2021/12/24 11:06:06;;;;;;;4.72;2.28;;;11.60;99.90;;;;;;5016328;28;20106;-90
2021/12/24 11:08:33;;;;;;;6.53;2.35;;;11.60;99.90;;;;;;5016347;28;20077;-87
2021/12/24 11:11:02;;;;;;;3.85;2.00;;;11.60;99.90;;;;;;5016651;28;20099;-88
2021/12/24 11:13:43;;;;;;;6.47;2.05;;;11.60;99.90;;;;;;5015906;28;20026;-89
2021/12/24 11:16:11;;;;;;;2.53;1.70;;;11.50;99.90;;;;;;5016321;28;20033;-89
2021/12/24 11:18:43;;;;;;;4.88;2.75;;;11.50;99.90;;;;;;5019041;28;20015;-87
2021/12/24 11:21:11;;;;;;;5.53;2.03;;;11.50;99.90;;;;;;5009026;28;20038;-87
2021/12/24 11:23:38;;;;;;;5.30;2.30;;;11.50;99.90;;;;;;5012261;28;20015;-89
2021/12/24 11:26:13;;;;;;;3.45;2.30;;;11.50;99.90;;;;;;5000503;28;20073;-88
2021/12/24 11:28:40;;;;;;;4.45;2.13;;;11.40;99.90;;;;;;5014226;28;20366;-88
2021/12/24 11:31:15;;;;;;;8.77;3.05;;;11.30;99.90;;;;;;5011908;28;20105;-87
2021/12/24 11:33:45;;;;;;;4.57;1.90;;;11.30;99.90;;;;;;5011557;28;20026;-87
2021/12/24 11:36:15;;;;;;;7.35;2.40;;;11.20;99.90;;;;;;5013451;28;20033;-87
2021/12/24 11:38:44;;;;;;;6.32;2.40;;;11.30;99.90;;;;;;5000177;28;20018;-87
2021/12/24 11:41:14;;;;;;;5.72;2.30;;;11.30;99.90;;;;;;5013537;28;20026;-89
2021/12/24 11:43:45;;;;;;;3.80;2.17;;;11.30;99.90;;;;;;5015440;28;20030;-88
2021/12/24 11:46:15;;;;;;;5.88;3.00;;;11.30;99.90;;;;;;5016725;28;20492;-89
2021/12/24 11:48:42;;;;;;;5.43;2.85;;;11.20;99.90;;;;;;5017855;28;20069;-89
2021/12/24 11:51:30;;;;;;;4.72;2.28;;;11.20;99.90;;;;;;5013135;28;20029;-90
2021/12/24 11:54:05;;;;;;;3.88;2.00;;;11.40;99.90;;;;;;5015407;28;20065;-89
2021/12/24 11:56:44;;;;;;;5.70;2.28;;;11.40;99.90;;;;;;5013610;28;20093;-88
2021/12/24 11:59:10;;;;;;;4.90;2.33;;;11.40;99.90;;;;;;5017596;28;20030;-88
2021/12/24 12:01:41;;;;;;;6.35;2.65;;;11.40;99.90;;;;;;5018374;28;20114;-90
2021/12/24 12:04:14;;;;;;;3.80;2.13;;;11.40;99.90;;;;;;5018275;28;20042;-87
2021/12/24 12:06:40;;;;;;;7.75;2.55;;;11.40;99.90;;;;;;5002196;28;20041;-87
2021/12/24 12:09:10;;;;;;;5.28;2.28;;;11.40;99.90;;;;;;5017378;28;20070;-89
2021/12/24 12:11:39;;;;;;;3.63;2.35;;;11.40;99.90;;;;;;5013531;28;20046;-88
2021/12/24 12:14:11;;;;;;;6.00;3.55;;;11.40;99.90;;;;;;5007618;28;20029;-87
2021/12/24 12:16:42;;;;;;;7.15;2.83;;;11.30;99.90;;;;;;5008208;28;20442;-88
2021/12/24 12:19:30;;;;;;;4.03;2.65;;;11.30;99.90;;;;;;5006034;28;20038;-89
2021/12/24 12:22:31;;;;;;;4.40;2.00;;;11.30;99.90;;;;;;5008197;28;20096;-87
2021/12/24 12:24:59;;;;;;;3.95;2.13;;;11.30;99.90;;;;;;5007691;28;20112;-89
2021/12/24 12:28:08;;;;;;;6.63;2.42;;;11.30;99.90;;;;;;5006942;28;20053;-87
2021/12/24 12:30:44;;;;;;;3.75;2.30;;;11.30;99.90;;;;;;5007059;28;20101;-88
2021/12/24 12:33:12;;;;;;;5.85;2.30;;;11.40;99.90;;;;;;5006766;28;20034;-89
2021/12/24 12:35:50;;;;;;;4.82;2.22;;;11.40;99.90;;;;;;4995112;28;20032;-89
2021/12/24 12:38:45;;;;;;;6.68;2.17;;;11.40;99.90;;;;;;5008374;28;20034;-89
2021/12/24 12:41:19;;;;;;;5.45;2.30;;;11.40;99.90;;;;;;5005447;28;20120;-87
2021/12/24 12:43:50;;;;;;;6.25;2.33;;;11.40;99.90;;;;;;5008787;28;20041;-90
2021/12/24 12:46:36;;;;;;;5.00;2.25;;;11.30;99.90;;;;;;5014782;28;20045;-86
2021/12/24 12:49:11;;;;;;;5.35;2.60;;;11.30;99.90;;;;;;5005954;28;20034;-89
2021/12/24 12:52:01;;;;;;;4.78;2.72;;;11.30;99.90;;;;;;5007871;28;20045;-88
2021/12/24 12:54:27;;;;;;;4.38;2.30;;;11.30;99.90;;;;;;4990299;28;20524;-89
2021/12/24 12:57:21;;;;;;;5.93;2.38;;;11.20;99.90;;;;;;5010852;28;20042;-88
2021/12/24 13:00:20;;;;;;;9.70;3.10;;;11.10;99.90;;;;;;5018733;28;20042;-89
2021/12/24 13:02:59;;;;;;;5.18;2.75;;;11.10;99.90;;;;;;5018971;28;20014;-89
2021/12/24 13:05:26;;;;;;;4.90;2.35;;;11.10;99.90;;;;;;5018285;28;20041;-89
2021/12/24 13:07:55;;;;;;;5.75;2.42;;;11.10;99.90;;;;;;5018416;28;20193;-90
2021/12/24 13:10:21;;;;;;;6.57;2.17;;;11.10;99.90;;;;;;5013036;28;20045;-89
2021/12/24 13:12:46;;;;;;;6.50;2.13;;;11.10;99.90;;;;;;5013148;28;20049;-89
2021/12/24 13:15:16;;;;;;;5.50;2.17;;;11.10;99.90;;;;;;4996359;28;20041;-88
2021/12/24 13:17:48;;;;;;;3.72;1.88;;;11.00;99.90;;;;;;5014292;28;20535;-89
2021/12/24 13:22:42;;;;;;;5.85;2.38;;;11.00;99.90;;;;;;5005898;28;20050;-88
2021/12/24 13:25:14;;;;;;;7.28;2.08;;;10.90;99.90;;;;;;5016507;28;20049;-91
2021/12/24 13:27:52;;;;;;;5.05;2.33;;;10.80;99.90;;;;;;5007112;28;20045;-87
2021/12/24 13:30:22;;;;;;;5.68;2.45;;;10.80;99.90;;;;;;4987755;28;20037;-90
2021/12/24 13:32:52;;;;;;;3.47;2.05;;;10.80;99.90;;;;;;5004326;28;20115;-88
2021/12/24 13:35:23;;;;;;;2.97;1.83;;;10.80;99.90;;;;;;5005562;28;20023;-87
2021/12/24 13:37:50;;;;;;;4.65;2.70;;;10.70;99.90;;;;;;5006474;28;20030;-89
2021/12/24 13:40:21;;;;;;;4.70;2.20;;;10.80;99.90;;;;;;5010417;28;20038;-88
2021/12/24 13:42:53;;;;;;;9.35;2.17;;;10.80;99.90;;;;;;5005607;28;20042;-87
2021/12/24 13:45:24;;;;;;;4.22;2.33;;;10.80;99.90;;;;;;5009639;28;20061;-89
2021/12/24 13:48:01;;;;;;;5.97;2.20;;;10.90;99.90;;;;;;4992321;28;20514;-87
2021/12/24 13:56:20;;;;;;;3.88;2.20;;;10.90;99.90;;;;;;5004334;28;20034;-90
2021/12/24 13:58:54;;;;;;;3.65;2.20;;;10.90;99.90;;;;;;5019051;23;20054;-86
2021/12/24 14:01:29;;;;;;;4.57;2.08;;;10.80;99.90;;;;;;5009132;28;20034;-86
2021/12/24 14:03:56;;;;;;;4.80;2.70;;;10.80;99.90;;;;;;5010111;28;20030;-85
2021/12/24 14:06:33;;;;;;;3.65;2.15;;;10.90;99.90;;;;;;5009448;28;20062;-86
2021/12/24 14:09:08;;;;;;;7.82;3.22;;;10.70;99.90;;;;;;5004396;28;20114;-87
2021/12/24 14:11:37;;;;;;;4.45;2.25;;;10.70;99.90;;;;;;4985707;28;20148;-85
2021/12/24 14:14:09;;;;;;;3.72;2.38;;;10.60;99.90;;;;;;5006637;28;20014;-86
2021/12/24 14:19:17;;;;;;;3.13;2.13;;;10.60;99.90;;;;;;5002933;28;20100;-85
2021/12/24 14:21:46;;;;;;;6.07;2.38;;;10.60;99.90;;;;;;5004993;28;20081;-86
2021/12/24 14:24:28;;;;;;;5.55;2.70;;;10.60;99.90;;;;;;5005085;28;20577;-86
2021/12/24 14:27:08;;;;;;;4.53;2.22;;;10.60;99.90;;;;;;5004953;28;20085;-85
2021/12/24 14:29:39;;;;;;;4.18;2.00;;;10.60;99.90;;;;;;5005620;28;20569;-85
2021/12/24 14:32:08;;;;;;;3.67;2.22;;;10.60;99.90;;;;;;5004887;28;20040;-85
2021/12/24 14:34:38;;;;;;;4.18;1.98;;;10.70;99.90;;;;;;5004799;28;20042;-85
2021/12/24 14:37:25;;;;;;;3.53;2.28;;;10.70;99.90;;;;;;5008476;28;20106;-83
2021/12/24 14:40:06;;;;;;;4.22;2.47;;;10.60;99.90;;;;;;5007531;28;20031;-86
2021/12/24 14:42:39;;;;;;;3.70;2.25;;;10.50;99.90;;;;;;5009876;28;20033;-85
2021/12/24 14:45:25;;;;;;;4.60;2.10;;;10.50;99.90;;;;;;5008287;28;20031;-85
2021/12/24 14:47:57;;;;;;;3.38;1.95;;;10.50;99.90;;;;;;5007573;28;20122;-86
2021/12/24 14:50:23;;;;;;;4.35;2.00;;;10.50;99.90;;;;;;5009411;28;20112;-84
2021/12/24 14:53:10;;;;;;;4.90;2.17;;;10.50;99.90;;;;;;5009898;28;20033;-85
2021/12/24 14:55:43;;;;;;;4.90;1.92;;;10.50;99.90;;;;;;5012059;28;20036;-85
2021/12/24 14:58:09;;;;;;;5.53;2.63;;;10.40;99.90;;;;;;5010171;28;20034;-86
2021/12/24 15:00:41;;;;;;;4.32;1.92;;;10.40;99.90;;;;;;5014325;28;20030;-84
2021/12/24 15:03:14;;;;;;;4.15;1.70;;;10.40;99.90;;;;;;5013958;28;20038;-84